createdAt,value
2017-05-03T00:00:07.241Z,12.24
2017-05-03T00:01:07.867Z,12.28
2017-05-03T00:02:07.457Z,12.24
2017-05-03T00:03:08.030Z,12.17
2017-05-03T00:04:07.593Z,12.17
2017-05-03T00:05:07.522Z,12.16
2017-05-03T00:06:08.089Z,12.20
2017-05-03T00:07:07.575Z,12.09
2017-05-03T00:08:07.193Z,12.16
2017-05-03T00:09:07.825Z,12.28
2017-05-03T00:10:07.400Z,12.28
2017-05-03T00:11:08.178Z,12.25
2017-05-03T00:12:07.817Z,12.25
2017-05-03T00:13:07.239Z,12.23
2017-05-03T00:14:07.750Z,12.23
2017-05-03T00:15:07.279Z,12.15
2017-05-03T00:16:07.883Z,12.16
2017-05-03T00:17:07.560Z,12.22
2017-05-03T00:18:08.114Z,12.26
2017-05-03T00:19:07.602Z,12.25
2017-05-03T00:20:07.519Z,12.24
2017-05-03T00:21:08.098Z,12.22
2017-05-03T00:22:07.716Z,12.16
2017-05-03T00:23:07.295Z,12.04
2017-05-03T00:24:07.824Z,12.01
2017-05-03T00:25:07.423Z,12.09
2017-05-03T00:26:08.005Z,12.09
2017-05-03T00:27:07.561Z,12.03
2017-05-03T00:28:08.062Z,12.15
2017-05-03T00:29:07.648Z,12.26
2017-05-03T00:30:07.190Z,12.25
2017-05-03T00:31:07.751Z,12.19
2017-05-03T00:32:07.384Z,12.11
2017-05-03T00:33:07.921Z,12.06
2017-05-03T00:34:07.403Z,12.05
2017-05-03T00:35:08.026Z,12.16
2017-05-03T00:36:07.633Z,12.04
2017-05-03T00:37:07.152Z,12.02
2017-05-03T00:38:07.792Z,11.95
2017-05-03T00:39:07.332Z,11.99
2017-05-03T00:40:07.877Z,12.00
2017-05-03T00:41:07.471Z,11.99
2017-05-03T00:42:08.403Z,11.94
2017-05-03T00:43:08.005Z,12.06
2017-05-03T00:44:07.607Z,12.06
2017-05-03T00:45:07.058Z,12.04
2017-05-03T00:46:07.641Z,11.93
2017-05-03T00:47:07.384Z,11.89
2017-05-03T00:48:07.938Z,11.99
2017-05-03T00:49:07.373Z,12.05
2017-05-03T00:50:08.068Z,12.04
2017-05-03T00:51:07.646Z,11.97
2017-05-03T00:52:07.127Z,12.02
2017-05-03T00:53:07.865Z,12.08
2017-05-03T00:54:07.390Z,11.89
2017-05-03T00:55:07.871Z,11.95
2017-05-03T00:56:07.445Z,11.90
2017-05-03T00:57:07.963Z,11.96
2017-05-03T00:58:07.491Z,12.03
2017-05-03T00:59:07.981Z,12.00
2017-05-03T01:00:07.613Z,12.10
2017-05-03T01:01:07.393Z,12.11
2017-05-03T01:02:08.050Z,11.92
2017-05-03T01:03:07.545Z,11.95
2017-05-03T01:04:08.131Z,11.99
2017-05-03T01:05:07.634Z,12.06
2017-05-03T01:06:07.451Z,12.21
2017-05-03T01:07:08.029Z,12.08
2017-05-03T01:08:07.660Z,12.07
2017-05-03T01:09:07.150Z,12.03
2017-05-03T01:10:07.710Z,12.10
2017-05-03T01:11:07.386Z,12.09
2017-05-03T01:12:07.971Z,12.01
2017-05-03T01:13:07.470Z,12.03
2017-05-03T01:14:08.016Z,12.03
2017-05-03T01:15:07.592Z,12.08
2017-05-03T01:16:07.111Z,11.95
2017-05-03T01:17:07.757Z,11.94
2017-05-03T01:18:07.230Z,11.99
2017-05-03T01:19:07.819Z,12.00
2017-05-03T01:20:07.291Z,12.03
2017-05-03T01:21:07.870Z,11.91
2017-05-03T01:22:07.416Z,11.80
2017-05-03T01:23:08.012Z,11.81
2017-05-03T01:24:07.540Z,11.83
2017-05-03T01:25:08.013Z,11.82
2017-05-03T01:26:07.668Z,11.80
2017-05-03T01:27:07.112Z,11.76
2017-05-03T01:28:07.280Z,11.70
2017-05-03T01:29:08.349Z,11.60
2017-05-03T01:30:07.898Z,11.66
2017-05-03T01:31:07.485Z,11.73
2017-05-03T01:32:08.054Z,11.76
2017-05-03T01:33:07.603Z,11.68
2017-05-03T01:34:07.148Z,11.72
2017-05-03T01:35:07.785Z,11.74
2017-05-03T01:36:07.277Z,11.78
2017-05-03T01:37:07.835Z,11.79
2017-05-03T01:38:07.423Z,11.66
2017-05-03T01:39:07.992Z,11.64
2017-05-03T01:40:07.504Z,11.54
2017-05-03T01:41:08.106Z,11.51
2017-05-03T01:42:08.051Z,11.52
2017-05-03T01:43:07.664Z,11.57
2017-05-03T01:44:07.393Z,11.57
2017-05-03T01:45:07.612Z,11.55
2017-05-03T01:46:07.282Z,11.62
2017-05-03T01:47:07.796Z,11.67
2017-05-03T01:48:07.369Z,11.60
2017-05-03T01:49:07.853Z,11.59
2017-05-03T01:50:07.402Z,11.52
2017-05-03T01:51:07.976Z,11.50
2017-05-03T01:52:07.422Z,11.53
2017-05-03T01:53:07.712Z,11.58
2017-05-03T01:54:07.331Z,11.57
2017-05-03T01:55:07.521Z,11.67
2017-05-03T01:56:08.223Z,11.72
2017-05-03T01:57:07.837Z,11.71
2017-05-03T01:58:07.430Z,11.77
2017-05-03T01:59:07.928Z,11.75
2017-05-03T02:00:07.523Z,11.73
2017-05-03T02:01:08.119Z,11.69
2017-05-03T02:02:07.619Z,11.43
2017-05-03T02:03:07.294Z,11.43
2017-05-03T02:04:07.910Z,11.47
2017-05-03T02:05:07.544Z,11.55
2017-05-03T02:06:08.106Z,11.64
2017-05-03T02:07:07.673Z,11.60
2017-05-03T02:08:07.470Z,11.63
2017-05-03T02:09:07.681Z,11.66
2017-05-03T02:10:07.205Z,11.68
2017-05-03T02:11:07.803Z,11.72
2017-05-03T02:12:07.239Z,11.67
2017-05-03T02:13:07.863Z,11.71
2017-05-03T02:14:07.419Z,11.69
2017-05-03T02:15:08.049Z,11.65
2017-05-03T02:16:07.683Z,11.79
2017-05-03T02:17:07.327Z,11.84
2017-05-03T02:18:07.891Z,11.84
2017-05-03T02:19:07.383Z,11.71
2017-05-03T02:20:07.984Z,11.65
2017-05-03T02:21:07.444Z,11.73
2017-05-03T02:22:07.969Z,11.68
2017-05-03T02:23:07.462Z,11.73
2017-05-03T02:24:08.082Z,11.77
2017-05-03T02:25:07.653Z,11.67
2017-05-03T02:26:07.415Z,11.71
2017-05-03T02:27:08.006Z,11.68
2017-05-03T02:28:07.598Z,11.71
2017-05-03T02:29:07.183Z,11.62
2017-05-03T02:30:07.752Z,11.66
2017-05-03T02:31:07.155Z,11.58
2017-05-03T02:32:07.741Z,11.64
2017-05-03T02:33:07.233Z,11.58
2017-05-03T02:34:07.820Z,11.62
2017-05-03T02:35:07.409Z,11.74
2017-05-03T02:36:07.914Z,11.74
2017-05-03T02:37:07.470Z,11.71
2017-05-03T02:38:08.069Z,11.68
2017-05-03T02:39:07.672Z,11.53
2017-05-03T02:40:07.200Z,11.61
2017-05-03T02:41:07.771Z,11.57
2017-05-03T02:42:07.373Z,11.56
2017-05-03T02:43:07.984Z,11.69
2017-05-03T02:44:07.654Z,11.67
2017-05-03T02:45:07.283Z,11.62
2017-05-03T02:46:07.882Z,11.51
2017-05-03T02:47:07.481Z,11.57
2017-05-03T02:48:08.080Z,11.57
2017-05-03T02:49:07.545Z,11.54
2017-05-03T02:50:08.069Z,11.60
2017-05-03T02:51:07.729Z,11.63
2017-05-03T02:52:07.257Z,11.69
2017-05-03T02:53:07.740Z,11.73
2017-05-03T02:54:07.384Z,11.75
2017-05-03T02:55:07.881Z,11.68
2017-05-03T02:56:07.490Z,11.63
2017-05-03T02:57:07.899Z,11.72
2017-05-03T02:58:07.709Z,11.83
2017-05-03T02:59:07.174Z,11.72
2017-05-03T03:00:07.763Z,11.69
2017-05-03T03:01:07.432Z,11.71
2017-05-03T03:02:07.935Z,11.64
2017-05-03T03:03:07.464Z,11.60
2017-05-03T03:04:08.123Z,11.57
2017-05-03T03:05:07.694Z,11.54
2017-05-03T03:06:07.229Z,11.54
2017-05-03T03:07:07.712Z,11.51
2017-05-03T03:08:07.348Z,11.45
2017-05-03T03:09:08.283Z,11.44
2017-05-03T03:10:07.731Z,11.50
2017-05-03T03:11:07.400Z,11.50
2017-05-03T03:12:07.967Z,11.59
2017-05-03T03:13:07.709Z,11.48
2017-05-03T03:14:07.281Z,11.46
2017-05-03T03:15:07.847Z,11.50
2017-05-03T03:16:07.324Z,11.43
2017-05-03T03:17:07.929Z,11.40
2017-05-03T03:18:07.527Z,11.30
2017-05-03T03:19:08.134Z,11.30
2017-05-03T03:20:07.730Z,11.38
2017-05-03T03:21:07.396Z,11.29
2017-05-03T03:22:08.097Z,11.18
2017-05-03T03:23:07.654Z,11.21
2017-05-03T03:24:07.279Z,11.19
2017-05-03T03:25:07.756Z,11.20
2017-05-03T03:26:07.266Z,11.32
2017-05-03T03:27:07.793Z,11.24
2017-05-03T03:28:07.582Z,11.26
2017-05-03T03:29:07.253Z,11.13
2017-05-03T03:30:08.197Z,11.25
2017-05-03T03:31:07.845Z,11.29
2017-05-03T03:32:07.444Z,11.26
2017-05-03T03:33:07.975Z,11.31
2017-05-03T03:34:07.616Z,11.24
2017-05-03T03:35:07.070Z,11.24
2017-05-03T03:36:07.678Z,11.30
2017-05-03T03:37:07.123Z,11.34
2017-05-03T03:38:07.655Z,11.25
2017-05-03T03:39:07.122Z,11.20
2017-05-03T03:40:07.732Z,11.27
2017-05-03T03:41:07.250Z,11.22
2017-05-03T03:42:07.766Z,11.25
2017-05-03T03:43:07.336Z,11.30
2017-05-03T03:44:07.920Z,10.97
2017-05-03T03:45:07.523Z,11.02
2017-05-03T03:46:08.120Z,11.25
2017-05-03T03:47:07.690Z,11.32
2017-05-03T03:48:07.201Z,11.08
2017-05-03T03:49:07.866Z,11.15
2017-05-03T03:50:07.364Z,11.15
2017-05-03T03:51:07.993Z,11.17
2017-05-03T03:52:07.565Z,11.18
2017-05-03T03:53:08.038Z,11.21
2017-05-03T03:54:07.485Z,11.16
2017-05-03T03:55:08.038Z,11.15
2017-05-03T03:56:07.537Z,11.14
2017-05-03T03:57:08.018Z,11.17
2017-05-03T03:58:07.632Z,11.19
2017-05-03T03:59:07.106Z,11.14
2017-05-03T04:00:07.665Z,11.17
2017-05-03T04:01:07.154Z,11.18
2017-05-03T04:02:08.050Z,11.14
2017-05-03T04:03:07.678Z,11.19
2017-05-03T04:04:07.135Z,11.20
2017-05-03T04:05:07.776Z,11.16
2017-05-03T04:06:07.330Z,11.05
2017-05-03T04:07:07.838Z,10.97
2017-05-03T04:08:07.656Z,10.99
2017-05-03T04:09:07.266Z,11.09
2017-05-03T04:10:07.803Z,10.81
2017-05-03T04:11:07.288Z,10.57
2017-05-03T04:12:08.077Z,10.69
2017-05-03T04:13:07.648Z,10.82
2017-05-03T04:14:07.439Z,10.96
2017-05-03T04:15:07.925Z,10.74
2017-05-03T04:16:07.499Z,10.73
2017-05-03T04:17:08.288Z,10.89
2017-05-03T04:18:07.918Z,10.86
2017-05-03T04:19:07.448Z,11.03
2017-05-03T04:20:08.015Z,11.06
2017-05-03T04:21:07.576Z,11.00
2017-05-03T04:22:07.093Z,10.91
2017-05-03T04:23:07.629Z,11.07
2017-05-03T04:24:07.137Z,11.03
2017-05-03T04:25:10.353Z,10.98
2017-05-03T04:26:07.264Z,10.73
2017-05-03T04:27:07.855Z,10.83
2017-05-03T04:28:07.521Z,10.94
2017-05-03T04:29:08.059Z,11.00
2017-05-03T04:30:07.652Z,11.02
2017-05-03T04:31:07.098Z,11.08
2017-05-03T04:32:07.731Z,11.14
2017-05-03T04:33:07.273Z,11.17
2017-05-03T04:34:07.858Z,11.24
2017-05-03T04:35:07.454Z,11.14
2017-05-03T04:36:08.019Z,10.83
2017-05-03T04:37:07.610Z,10.76
2017-05-03T04:38:07.176Z,10.91
2017-05-03T04:39:07.741Z,10.92
2017-05-03T04:40:07.315Z,10.91
2017-05-03T04:41:08.014Z,10.71
2017-05-03T04:42:07.606Z,10.62
2017-05-03T04:43:07.190Z,10.78
2017-05-03T04:44:07.725Z,10.82
2017-05-03T04:45:07.267Z,10.85
2017-05-03T04:46:07.851Z,10.75
2017-05-03T04:47:07.350Z,10.76
2017-05-03T04:48:07.956Z,10.87
2017-05-03T04:49:07.431Z,11.02
2017-05-03T04:50:07.918Z,11.10
2017-05-03T04:51:07.426Z,11.12
2017-05-03T04:52:08.081Z,10.91
2017-05-03T04:53:07.562Z,10.69
2017-05-03T04:54:08.185Z,10.49
2017-05-03T04:55:08.913Z,10.48
2017-05-03T04:56:07.434Z,10.38
2017-05-03T04:57:08.088Z,10.43
2017-05-03T04:58:07.740Z,10.54
2017-05-03T04:59:07.304Z,10.40
2017-05-03T05:00:07.875Z,10.66
2017-05-03T05:01:07.500Z,10.43
2017-05-03T05:02:08.983Z,10.46
2017-05-03T05:03:07.545Z,10.54
2017-05-03T05:04:08.134Z,10.40
2017-05-03T05:05:07.670Z,10.41
2017-05-03T05:06:07.157Z,10.51
2017-05-03T05:07:07.717Z,10.31
2017-05-03T05:08:07.327Z,10.15
2017-05-03T05:09:07.776Z,10.30
2017-05-03T05:10:07.972Z,10.43
2017-05-03T05:11:07.484Z,10.32
2017-05-03T05:12:08.037Z,10.44
2017-05-03T05:13:07.700Z,10.31
2017-05-03T05:14:07.337Z,10.60
2017-05-03T05:15:07.832Z,10.75
2017-05-03T05:16:07.288Z,10.80
2017-05-03T05:17:07.990Z,10.85
2017-05-03T05:18:07.736Z,10.91
2017-05-03T05:19:07.216Z,10.98
2017-05-03T05:20:07.840Z,10.96
2017-05-03T05:21:07.413Z,10.98
2017-05-03T05:22:07.879Z,10.91
2017-05-03T05:23:07.511Z,10.88
2017-05-03T05:24:08.132Z,10.95
2017-05-03T05:25:07.590Z,10.96
2017-05-03T05:26:07.212Z,10.92
2017-05-03T05:27:07.827Z,10.98
2017-05-03T05:28:07.499Z,10.90
2017-05-03T05:29:07.978Z,10.79
2017-05-03T05:30:07.557Z,10.76
2017-05-03T05:31:08.134Z,10.78
2017-05-03T05:32:07.713Z,11.01
2017-05-03T05:33:07.207Z,10.94
2017-05-03T05:34:07.756Z,11.07
2017-05-03T05:35:07.176Z,10.88
2017-05-03T05:36:07.747Z,10.83
2017-05-03T05:37:07.365Z,10.89
2017-05-03T05:38:07.860Z,10.95
2017-05-03T05:39:07.353Z,10.86
2017-05-03T05:40:07.853Z,10.96
2017-05-03T05:41:07.327Z,11.10
2017-05-03T05:42:08.056Z,11.07
2017-05-03T05:43:07.820Z,11.12
2017-05-03T05:44:07.359Z,11.09
2017-05-03T05:45:07.867Z,10.98
2017-05-03T05:46:07.427Z,10.78
2017-05-03T05:47:07.951Z,10.85
2017-05-03T05:48:07.711Z,11.00
2017-05-03T05:49:07.504Z,11.15
2017-05-03T05:50:08.009Z,11.16
2017-05-03T05:51:07.566Z,11.00
2017-05-03T05:52:08.183Z,11.11
2017-05-03T05:53:07.907Z,11.08
2017-05-03T05:54:07.464Z,11.12
2017-05-03T05:55:08.022Z,11.20
2017-05-03T05:56:07.556Z,11.24
2017-05-03T05:57:08.117Z,11.35
2017-05-03T05:58:07.817Z,11.11
2017-05-03T05:59:07.458Z,11.18
2017-05-03T06:00:07.949Z,11.21
2017-05-03T06:01:07.679Z,11.33
2017-05-03T06:02:07.159Z,11.30
2017-05-03T06:03:07.584Z,11.28
2017-05-03T06:04:07.126Z,11.37
2017-05-03T06:05:07.722Z,11.39
2017-05-03T06:06:07.377Z,11.42
2017-05-03T06:07:07.949Z,11.36
2017-05-03T06:08:07.721Z,11.38
2017-05-03T06:09:07.291Z,11.18
2017-05-03T06:10:07.798Z,11.30
2017-05-03T06:11:07.304Z,11.47
2017-05-03T06:12:07.812Z,11.63
2017-05-03T06:13:07.311Z,11.59
2017-05-03T06:14:07.843Z,11.49
2017-05-03T06:15:07.335Z,11.51
2017-05-03T06:16:07.827Z,11.67
2017-05-03T06:17:07.576Z,11.69
2017-05-03T06:18:08.162Z,11.66
2017-05-03T06:19:07.699Z,11.68
2017-05-03T06:20:07.350Z,11.77
2017-05-03T06:21:07.964Z,11.80
2017-05-03T06:22:07.656Z,11.56
2017-05-03T06:23:07.178Z,11.49
2017-05-03T06:24:07.846Z,11.56
2017-05-03T06:25:07.457Z,11.49
2017-05-03T06:26:08.030Z,11.35
2017-05-03T06:27:07.622Z,11.34
2017-05-03T06:28:07.238Z,11.34
2017-05-03T06:29:07.713Z,11.40
2017-05-03T06:30:07.344Z,11.61
2017-05-03T06:31:07.906Z,11.62
2017-05-03T06:32:07.445Z,11.63
2017-05-03T06:33:08.132Z,11.62
2017-05-03T06:34:07.764Z,11.59
2017-05-03T06:35:07.292Z,11.51
2017-05-03T06:36:07.886Z,11.54
2017-05-03T06:37:07.482Z,11.61
2017-05-03T06:38:08.354Z,11.49
2017-05-03T06:39:07.948Z,11.46
2017-05-03T06:40:07.467Z,11.45
2017-05-03T06:41:08.290Z,11.36
2017-05-03T06:42:07.836Z,11.16
2017-05-03T06:43:07.706Z,11.16
2017-05-03T06:44:07.780Z,11.36
2017-05-03T06:45:07.415Z,11.45
2017-05-03T06:46:07.897Z,11.26
2017-05-03T06:47:07.493Z,11.00
2017-05-03T06:48:08.056Z,10.88
2017-05-03T06:49:07.697Z,11.09
2017-05-03T06:50:07.251Z,11.03
2017-05-03T06:51:07.714Z,11.27
2017-05-03T06:52:07.187Z,11.41
2017-05-03T06:53:07.708Z,11.54
2017-05-03T06:54:07.345Z,11.68
2017-05-03T06:55:07.913Z,11.77
2017-05-03T06:56:07.506Z,11.64
2017-05-03T06:57:07.209Z,11.65
2017-05-03T06:58:08.100Z,11.66
2017-05-03T06:59:07.709Z,11.52
2017-05-03T07:00:07.421Z,11.37
2017-05-03T07:01:07.901Z,11.25
2017-05-03T07:02:07.361Z,10.96
2017-05-03T07:03:07.932Z,11.05
2017-05-03T07:04:07.593Z,10.86
2017-05-03T07:05:07.150Z,11.11
2017-05-03T07:06:07.678Z,11.28
2017-05-03T07:07:07.266Z,11.28
2017-05-03T07:08:07.833Z,11.20
2017-05-03T07:09:07.445Z,11.31
2017-05-03T07:10:08.066Z,11.31
2017-05-03T07:11:07.678Z,11.32
2017-05-03T07:12:07.303Z,11.29
2017-05-03T07:13:07.997Z,11.41
2017-05-03T07:14:07.545Z,11.43
2017-05-03T07:15:07.119Z,11.47
2017-05-03T07:16:07.610Z,11.61
2017-05-03T07:17:07.267Z,11.65
2017-05-03T07:18:07.695Z,11.67
2017-05-03T07:19:07.267Z,11.70
2017-05-03T07:20:07.198Z,11.64
2017-05-03T07:21:07.838Z,11.57
2017-05-03T07:22:07.306Z,11.52
2017-05-03T07:23:07.785Z,11.38
2017-05-03T07:24:07.382Z,11.38
2017-05-03T07:25:08.053Z,11.38
2017-05-03T07:26:07.626Z,11.49
2017-05-03T07:27:07.205Z,11.17
2017-05-03T07:28:07.764Z,11.24
2017-05-03T07:29:07.431Z,11.35
2017-05-03T07:30:08.007Z,11.38
2017-05-03T07:31:07.535Z,11.37
2017-05-03T07:32:08.127Z,11.14
2017-05-03T07:33:07.713Z,11.11
2017-05-03T07:34:07.320Z,11.21
2017-05-03T07:35:07.773Z,11.35
2017-05-03T07:36:07.643Z,11.49
2017-05-03T07:37:07.199Z,11.48
2017-05-03T07:38:07.720Z,11.64
2017-05-03T07:39:07.258Z,11.58
2017-05-03T07:40:07.744Z,11.63
2017-05-03T07:41:07.260Z,11.70
2017-05-03T07:42:07.863Z,11.72
2017-05-03T07:43:07.531Z,11.73
2017-05-03T07:44:08.174Z,11.69
2017-05-03T07:45:07.720Z,11.78
2017-05-03T07:46:07.431Z,11.84
2017-05-03T07:47:07.924Z,11.95
2017-05-03T07:48:07.474Z,11.91
2017-05-03T07:49:08.162Z,11.84
2017-05-03T07:50:07.783Z,11.73
2017-05-03T07:51:07.274Z,11.67
2017-05-03T07:52:07.811Z,11.80
2017-05-03T07:53:07.342Z,11.72
2017-05-03T07:54:08.022Z,11.72
2017-05-03T07:55:07.638Z,11.69
2017-05-03T07:56:07.216Z,11.66
2017-05-03T07:57:07.998Z,11.17
2017-05-03T07:58:07.599Z,11.31
2017-05-03T07:59:07.153Z,11.56
2017-05-03T08:00:07.805Z,11.57
2017-05-03T08:01:07.270Z,11.67
2017-05-03T08:02:07.813Z,11.65
2017-05-03T08:03:07.252Z,11.71
2017-05-03T08:04:07.748Z,11.75
2017-05-03T08:05:26.806Z,11.67
2017-05-03T08:06:07.267Z,11.34
2017-05-03T08:07:07.830Z,11.23
2017-05-03T08:08:07.366Z,11.42
2017-05-03T08:09:07.819Z,11.63
2017-05-03T08:10:07.358Z,11.83
2017-05-03T08:11:07.937Z,11.65
2017-05-03T08:12:07.440Z,11.82
2017-05-03T08:13:08.004Z,11.82
2017-05-03T08:14:07.640Z,11.84
2017-05-03T08:15:07.265Z,11.88
2017-05-03T08:16:07.860Z,11.81
2017-05-03T08:17:07.614Z,11.78
2017-05-03T08:18:07.251Z,11.75
2017-05-03T08:19:08.064Z,11.83
2017-05-03T08:20:07.734Z,11.81
2017-05-03T08:21:07.359Z,11.83
2017-05-03T08:22:08.079Z,11.71
2017-05-03T08:23:07.878Z,11.83
2017-05-03T08:24:07.333Z,11.78
2017-05-03T08:25:07.926Z,11.97
2017-05-03T08:26:08.003Z,11.99
2017-05-03T08:27:07.572Z,12.06
2017-05-03T08:28:08.122Z,12.03
2017-05-03T08:29:07.632Z,12.03
2017-05-03T08:30:07.153Z,11.84
2017-05-03T08:31:07.850Z,11.96
2017-05-03T08:32:07.520Z,12.00
2017-05-03T08:33:08.098Z,12.08
2017-05-03T08:34:07.656Z,11.82
2017-05-03T08:35:07.151Z,11.75
2017-05-03T08:36:07.719Z,11.56
2017-05-03T08:37:07.307Z,11.69
2017-05-03T08:38:07.849Z,11.89
2017-05-03T08:39:07.799Z,11.93
2017-05-03T08:40:07.279Z,12.05
2017-05-03T08:41:07.859Z,12.04
2017-05-03T08:42:07.442Z,12.14
2017-05-03T08:43:08.083Z,12.03
2017-05-03T08:44:07.670Z,11.85
2017-05-03T08:45:07.206Z,11.77
2017-05-03T08:46:07.749Z,11.73
2017-05-03T08:47:07.335Z,11.86
2017-05-03T08:48:08.191Z,11.70
2017-05-03T08:49:07.841Z,11.96
2017-05-03T08:50:07.302Z,12.17
2017-05-03T08:51:07.821Z,12.13
2017-05-03T08:52:07.319Z,11.79
2017-05-03T08:53:07.942Z,11.84
2017-05-03T08:54:07.491Z,11.82
2017-05-03T08:55:08.008Z,11.96
2017-05-03T08:56:07.585Z,12.09
2017-05-03T08:57:07.044Z,12.09
2017-05-03T08:58:07.921Z,12.16
2017-05-03T08:59:07.537Z,11.85
2017-05-03T09:00:08.128Z,11.86
2017-05-03T09:01:07.792Z,11.81
2017-05-03T09:02:07.291Z,11.95
2017-05-03T09:03:07.872Z,11.95
2017-05-03T09:04:07.427Z,11.91
2017-05-03T09:05:07.946Z,12.03
2017-05-03T09:06:07.651Z,12.06
2017-05-03T09:07:07.238Z,12.12
2017-05-03T09:08:07.741Z,11.81
2017-05-03T09:09:07.550Z,11.61
2017-05-03T09:10:08.392Z,11.59
2017-05-03T09:11:08.061Z,11.80
2017-05-03T09:12:07.553Z,11.89
2017-05-03T09:13:08.248Z,11.94
2017-05-03T09:14:07.765Z,11.94
2017-05-03T09:15:07.301Z,11.83
2017-05-03T09:16:07.928Z,11.99
2017-05-03T09:17:07.523Z,11.87
2017-05-03T09:18:08.085Z,11.99
2017-05-03T09:19:07.588Z,12.11
2017-05-03T09:20:07.186Z,12.11
2017-05-03T09:21:07.781Z,12.14
2017-05-03T09:22:07.397Z,12.08
2017-05-03T09:23:08.011Z,11.63
2017-05-03T09:24:07.520Z,11.57
2017-05-03T09:25:08.178Z,11.72
2017-05-03T09:26:07.773Z,11.84
2017-05-03T09:27:07.198Z,11.85
2017-05-03T09:28:07.987Z,11.86
2017-05-03T09:29:07.543Z,11.76
2017-05-03T09:30:08.025Z,11.85
2017-05-03T09:31:07.650Z,12.01
2017-05-03T09:32:07.379Z,12.25
2017-05-03T09:33:07.943Z,12.33
2017-05-03T09:34:07.538Z,12.42
2017-05-03T09:35:08.044Z,12.31
2017-05-03T09:36:07.593Z,12.18
2017-05-03T09:37:07.065Z,12.31
2017-05-03T09:38:07.646Z,12.50
2017-05-03T09:39:07.077Z,12.64
2017-05-03T09:40:07.660Z,12.51
2017-05-03T09:41:07.266Z,12.48
2017-05-03T09:42:07.799Z,12.47
2017-05-03T09:43:07.258Z,12.65
2017-05-03T09:44:07.820Z,12.75
2017-05-03T09:45:07.358Z,12.76
2017-05-03T09:46:07.980Z,12.66
2017-05-03T09:47:07.587Z,12.58
2017-05-03T09:48:07.314Z,12.45
2017-05-03T09:49:07.827Z,12.46
2017-05-03T09:50:07.326Z,12.54
2017-05-03T09:51:07.962Z,12.42
2017-05-03T09:52:07.534Z,12.43
2017-05-03T09:53:08.158Z,12.48
2017-05-03T09:54:07.868Z,12.56
2017-05-03T09:55:07.437Z,12.47
2017-05-03T09:56:08.092Z,12.49
2017-05-03T09:57:07.910Z,12.35
2017-05-03T09:58:07.491Z,12.38
2017-05-03T09:59:08.127Z,12.27
2017-05-03T10:00:07.718Z,12.37
2017-05-03T10:01:07.178Z,12.36
2017-05-03T10:02:07.751Z,12.32
2017-05-03T10:03:07.243Z,12.46
2017-05-03T10:04:07.750Z,12.58
2017-05-03T10:05:07.534Z,12.61
2017-05-03T10:06:08.160Z,12.77
2017-05-03T10:07:07.627Z,12.90
2017-05-03T10:08:07.173Z,12.79
2017-05-03T10:09:07.729Z,12.67
2017-05-03T10:10:07.225Z,12.58
2017-05-03T10:11:07.697Z,12.63
2017-05-03T10:12:07.448Z,12.59
2017-05-03T10:13:07.993Z,12.50
2017-05-03T10:14:07.457Z,12.50
2017-05-03T10:15:08.034Z,12.55
2017-05-03T10:16:07.578Z,12.52
2017-05-03T10:17:07.598Z,12.58
2017-05-03T10:18:07.252Z,12.51
2017-05-03T10:19:07.915Z,12.51
2017-05-03T10:20:07.397Z,12.61
2017-05-03T10:21:07.953Z,12.58
2017-05-03T10:22:07.503Z,12.75
2017-05-03T10:23:08.305Z,12.86
2017-05-03T10:24:07.821Z,12.85
2017-05-03T10:25:07.365Z,12.73
2017-05-03T10:26:07.993Z,12.74
2017-05-03T10:27:07.492Z,12.68
2017-05-03T10:28:08.094Z,12.84
2017-05-03T10:29:07.714Z,12.92
2017-05-03T10:30:07.606Z,12.83
2017-05-03T10:31:07.412Z,12.83
2017-05-03T10:32:07.840Z,12.90
2017-05-03T10:33:07.766Z,13.01
2017-05-03T10:34:07.231Z,13.25
2017-05-03T10:35:07.744Z,13.01
2017-05-03T10:36:07.562Z,13.00
2017-05-03T10:37:08.231Z,12.91
2017-05-03T10:38:07.753Z,13.14
2017-05-03T10:39:07.430Z,13.20
2017-05-03T10:40:07.964Z,13.26
2017-05-03T10:41:07.583Z,13.29
2017-05-03T10:42:08.103Z,13.28
2017-05-03T10:43:07.956Z,13.17
2017-05-03T10:44:07.421Z,13.18
2017-05-03T10:45:08.140Z,13.39
2017-05-03T10:46:07.621Z,13.50
2017-05-03T10:47:07.339Z,13.57
2017-05-03T10:48:07.857Z,13.43
2017-05-03T10:49:07.398Z,13.38
2017-05-03T10:50:08.052Z,13.27
2017-05-03T10:51:07.623Z,13.30
2017-05-03T10:52:07.065Z,13.43
2017-05-03T10:53:07.932Z,13.58
2017-05-03T10:54:07.796Z,13.33
2017-05-03T10:55:07.548Z,13.25
2017-05-03T10:56:08.066Z,13.20
2017-05-03T10:57:07.635Z,13.30
2017-05-03T10:58:07.146Z,13.50
2017-05-03T10:59:07.697Z,13.65
2017-05-03T11:00:07.215Z,13.67
2017-05-03T11:01:07.757Z,13.76
2017-05-03T11:02:07.371Z,13.76
2017-05-03T11:03:07.899Z,13.71
2017-05-03T11:04:07.453Z,13.57
2017-05-03T11:05:08.020Z,13.27
2017-05-03T11:06:07.692Z,13.46
2017-05-03T11:07:07.258Z,13.77
2017-05-03T11:08:07.784Z,13.49
2017-05-03T11:09:07.443Z,13.60
2017-05-03T11:10:08.060Z,13.67
2017-05-03T11:11:07.651Z,13.69
2017-05-03T11:12:07.235Z,13.54
2017-05-03T11:13:07.765Z,13.48
2017-05-03T11:14:07.267Z,13.60
2017-05-03T11:15:07.923Z,13.69
2017-05-03T11:16:07.409Z,13.70
2017-05-03T11:17:08.121Z,13.34
2017-05-03T11:18:07.912Z,13.55
2017-05-03T11:19:07.432Z,13.33
2017-05-03T11:20:07.954Z,13.38
2017-05-03T11:21:07.517Z,13.58
2017-05-03T11:22:08.064Z,13.74
2017-05-03T11:23:07.799Z,13.59
2017-05-03T11:24:07.326Z,13.60
2017-05-03T11:25:07.906Z,13.73
2017-05-03T11:26:07.502Z,13.64
2017-05-03T11:27:08.180Z,13.64
2017-05-03T11:28:07.825Z,13.76
2017-05-03T11:29:07.677Z,13.79
2017-05-03T11:30:07.199Z,13.97
2017-05-03T11:31:07.847Z,14.14
2017-05-03T11:32:07.469Z,14.18
2017-05-03T11:33:08.039Z,14.26
2017-05-03T11:34:07.702Z,14.22
2017-05-03T11:35:07.166Z,14.11
2017-05-03T11:36:07.234Z,13.79
2017-05-03T11:37:07.726Z,13.83
2017-05-03T11:38:07.287Z,13.66
2017-05-03T11:39:07.797Z,13.74
2017-05-03T11:40:07.369Z,13.78
2017-05-03T11:41:07.952Z,13.76
2017-05-03T11:42:07.462Z,13.99
2017-05-03T11:43:08.006Z,13.96
2017-05-03T11:44:07.579Z,13.88
2017-05-03T11:45:08.151Z,13.74
2017-05-03T11:46:07.719Z,13.88
2017-05-03T11:47:07.209Z,13.99
2017-05-03T11:48:07.835Z,14.24
2017-05-03T11:49:07.332Z,14.02
2017-05-03T11:50:07.914Z,13.88
2017-05-03T11:51:07.492Z,13.95
2017-05-03T11:52:07.953Z,14.08
2017-05-03T11:53:07.547Z,13.77
2017-05-03T11:54:08.263Z,13.72
2017-05-03T11:55:07.829Z,13.85
2017-05-03T11:56:07.339Z,13.73
2017-05-03T11:57:08.159Z,13.65
2017-05-03T11:58:07.782Z,13.70
2017-05-03T11:59:07.300Z,13.95
2017-05-03T12:00:07.856Z,14.13
2017-05-03T12:01:07.403Z,14.23
2017-05-03T12:02:07.972Z,14.34
2017-05-03T12:03:07.490Z,14.26
2017-05-03T12:04:08.134Z,14.41
2017-05-03T12:05:07.676Z,14.39
2017-05-03T12:06:07.593Z,14.30
2017-05-03T12:07:07.137Z,14.40
2017-05-03T12:08:07.838Z,14.50
2017-05-03T12:09:07.265Z,14.77
2017-05-03T12:10:07.817Z,14.74
2017-05-03T12:11:07.399Z,14.51
2017-05-03T12:12:08.010Z,14.64
2017-05-03T12:13:07.638Z,14.85
2017-05-03T12:14:07.105Z,15.03
2017-05-03T12:15:07.732Z,15.17
2017-05-03T12:16:07.323Z,15.26
2017-05-03T12:17:08.030Z,15.02
2017-05-03T12:18:07.693Z,14.86
2017-05-03T12:19:07.274Z,14.98
2017-05-03T12:20:07.858Z,15.15
2017-05-03T12:21:07.529Z,15.03
2017-05-03T12:22:08.103Z,14.93
2017-05-03T12:23:07.731Z,14.87
2017-05-03T12:24:07.260Z,14.85
2017-05-03T12:25:07.895Z,14.63
2017-05-03T12:26:07.490Z,14.91
2017-05-03T12:27:08.174Z,14.97
2017-05-03T12:28:07.824Z,15.07
2017-05-03T12:29:07.746Z,15.11
2017-05-03T12:30:07.389Z,15.02
2017-05-03T12:31:07.967Z,15.00
2017-05-03T12:32:07.517Z,15.13
2017-05-03T12:33:08.056Z,14.97
2017-05-03T12:34:07.645Z,15.18
2017-05-03T12:35:07.222Z,14.89
2017-05-03T12:36:08.011Z,14.89
2017-05-03T12:37:07.533Z,14.80
2017-05-03T12:38:08.136Z,14.94
2017-05-03T12:39:07.653Z,15.15
2017-05-03T12:40:07.509Z,15.08
2017-05-03T12:41:08.055Z,14.84
2017-05-03T12:42:07.598Z,15.08
2017-05-03T12:43:07.843Z,14.99
2017-05-03T12:44:07.383Z,15.16
2017-05-03T12:45:07.862Z,15.29
2017-05-03T12:46:07.431Z,15.14
2017-05-03T12:47:08.043Z,15.37
2017-05-03T12:48:07.501Z,15.60
2017-05-03T12:49:08.333Z,15.90
2017-05-03T12:50:07.930Z,15.86
2017-05-03T12:51:07.617Z,16.05
2017-05-03T12:52:07.213Z,16.06